KBXA/BXA METAR and TAF weather

Enter ICAO airport designator
Station Type Date Time Source
KBXA METAR 2019/03/26 14:55 UTC NOAA

KBXA 261455Z AUTO 03007KT 10SM OVC021 14/09 A3024 RMK AO2 T01360085


Station Type Date Time Source
KBXA Decoded METAR 2019/03/26 14:55 UTC NOAA

Bogalusa, George R Carr Memorial Air Field, LA, United States (KBXA) 30-48-49N 089-51-53W
Mar 26, 2019 - 10:55 AM EDT / 2019.03.26 1455 UTC
Wind: from the NNE (030 degrees) at 8 MPH (7 KT):0
Visibility: 10 mile(s):0
Sky conditions: overcast
Temperature: 56.5 F (13.6 C)
Dew Point: 47.3 F (8.5 C)
Relative Humidity: 71%
Pressure (altimeter): 30.24 in. Hg (1024 hPa)
ob: KBXA 261455Z AUTO 03007KT 10SM OVC021 14/09 A3024 RMK AO2 T01360085
cycle: 15

Station Type Date Time Source
KBXA TAF UTC NOAA

Error!

Example: see airport list